メインページ
METAR-TAF:

METAR-TAF

空港 :

Chetwynd, ブリティッシュコロンビア州, カナダ

緯度: 55-42N, 経度: 121-38W, 海抜: 609m

現時点の気象観測

当レポートは10時間10分前の01:00(UTC)に作成
西/南西の風 10kt、最大21ktの突風を伴う、南/南西から西の間で変化する
気温 22°C
湿度 43%
気圧 1015 hPa
視程: 56.3km
高度5500ftの雲はほとんどない
高度12000ftの雲は散在している
高度23000ftの千切れ雲あり

METAR: CYCQ 050100Z 25010G21KT 200V280 35SM FEW055 SCT120 BKN230 22/09 A2996 RMK CU1AC3CI1 ACSL N-SE LAST STFD OBS/NEXT 051300Z SLP151 DENSITY ALT 3300FT

時間: 04:10 (11:10 UTC)


TAF: 見つかりません

4,000以上の空港の気象観測と天気予報(METAR報とTAF報)

利用可能な観測所は地図上に黄色い丸と赤い丸で示す。

丸の上にカーソルを重ねると観測所名を参照できる。

次にクリックすると気象観測と天気予報を参照できる。

マップの切り替え:黒色「×」印の緑ボタンをクリックして拡大、「-」印の緑ボタンをクリックして縮小、緑色の三角印をクリックして隣りの地図に切り替え


METAR-TAF: